LFPN METAR and TAF | Updated Today

LFPN METAR

Toussus-le-Noble Airport

Observation time: 2 min. ago

LFPN 052100Z AUTO 36008KT CAVOK 04/01 Q1041 NOSIG

Need help? Read our tutorial on how to read METARs or read the parsed version below.

Toussus-le-Noble Airport (LFPN) METAR

  • Weather conditions on Sun, 05 Feb 2023 21:00:00 +0000 (2 min. ago):
  • Present conditions: Dry
  • Clouds: Clear skies
  • Visibility: Greater than 10 km
  • Wind: 360 degrees at 8 knots
  • Temperature: 4 celsius
  • Dew point: 1 celsius
  • Pressure: 1041 millibars
  • Remarks: None


Useful to know...

  • Codes: LFPN/TNF
  • Airport elevation: 538ft
  • Municipality: Toussus-le-Noble
  • Country: France
  • Continent: Europe